createdAt,value
2023-01-06T00:01:14.007Z,10.37
2023-01-06T00:03:43.224Z,10.36
2023-01-06T00:06:14.003Z,10.38
2023-01-06T00:08:41.594Z,10.35
2023-01-06T00:11:10.785Z,10.36
2023-01-06T00:13:38.741Z,10.35
2023-01-06T00:16:07.633Z,10.35
2023-01-06T00:18:35.436Z,10.36
2023-01-06T00:21:04.947Z,10.40
2023-01-06T00:23:32.997Z,10.39
2023-01-06T00:26:00.634Z,10.38
2023-01-06T00:28:28.315Z,10.36
2023-01-06T00:30:56.139Z,10.36
2023-01-06T00:33:24.027Z,10.36
2023-01-06T00:35:52.197Z,10.39
2023-01-06T00:38:21.589Z,10.37
2023-01-06T00:40:49.163Z,10.32
2023-01-06T00:43:16.774Z,10.32
2023-01-06T00:45:44.438Z,10.34
2023-01-06T00:48:12.042Z,10.35
2023-01-06T00:50:39.601Z,10.36
2023-01-06T00:53:07.194Z,10.27
2023-01-06T00:55:36.152Z,10.28
2023-01-06T00:58:03.787Z,10.29
2023-01-06T01:00:31.791Z,10.28
2023-01-06T01:02:59.963Z,10.28
2023-01-06T01:05:27.775Z,10.25
2023-01-06T01:07:55.379Z,10.24
2023-01-06T01:10:22.994Z,10.25
2023-01-06T01:12:53.965Z,10.27
2023-01-06T01:15:22.371Z,10.29
2023-01-06T01:17:50.045Z,10.29
2023-01-06T01:20:17.691Z,10.29
2023-01-06T01:22:45.312Z,10.27
2023-01-06T01:25:12.877Z,10.24
2023-01-06T01:27:40.507Z,10.23
2023-01-06T01:30:10.406Z,10.23
2023-01-06T01:32:37.968Z,10.19
2023-01-06T01:35:05.984Z,10.16
2023-01-06T01:37:33.594Z,10.13
2023-01-06T01:40:01.245Z,10.13
2023-01-06T01:42:29.006Z,10.13
2023-01-06T01:45:00.136Z,10.16
2023-01-06T01:47:45.953Z,10.15
2023-01-06T01:50:25.336Z,10.13
2023-01-06T01:52:55.779Z,10.10
2023-01-06T01:55:24.759Z,10.14
2023-01-06T01:57:59.746Z,10.17
2023-01-06T02:00:27.736Z,10.17
2023-01-06T02:02:57.707Z,10.22
2023-01-06T02:05:28.111Z,10.20
2023-01-06T02:07:59.264Z,10.19
2023-01-06T02:10:26.995Z,10.20
2023-01-06T02:12:59.023Z,10.23
2023-01-06T02:15:29.478Z,10.23
2023-01-06T02:18:15.491Z,10.24
2023-01-06T02:21:04.790Z,10.22
2023-01-06T02:23:57.059Z,10.22
2023-01-06T02:27:04.238Z,10.23
2023-01-06T02:30:06.459Z,10.24
2023-01-06T02:32:49.434Z,10.30
2023-01-06T02:35:34.367Z,10.31
2023-01-06T02:38:13.831Z,10.32
2023-01-06T02:40:56.687Z,10.35
2023-01-06T02:43:33.223Z,10.48
2023-01-06T02:46:10.814Z,10.58
2023-01-06T02:48:47.175Z,10.85
2023-01-06T02:51:19.674Z,11.01
2023-01-06T02:54:01.544Z,11.07
2023-01-06T02:56:33.215Z,11.10
2023-01-06T02:59:07.096Z,11.08
2023-01-06T03:01:36.349Z,11.08
2023-01-06T03:04:11.076Z,11.08
2023-01-06T03:06:44.794Z,11.15
2023-01-06T03:09:19.272Z,11.12
2023-01-06T03:11:51.925Z,11.10
2023-01-06T03:14:25.658Z,11.11
2023-01-06T03:16:55.691Z,11.12
2023-01-06T03:19:25.971Z,11.11
2023-01-06T03:21:55.275Z,11.10
2023-01-06T03:24:24.491Z,11.11
2023-01-06T03:26:53.975Z,11.14
2023-01-06T03:29:23.349Z,11.15
2023-01-06T03:32:02.379Z,11.14
2023-01-06T03:34:52.164Z,11.18
2023-01-06T03:37:31.385Z,11.20
2023-01-06T03:40:09.850Z,11.21
2023-01-06T03:43:12.592Z,11.21
2023-01-06T03:45:52.061Z,11.20
2023-01-06T03:48:30.456Z,11.17
2023-01-06T03:51:06.234Z,11.17
2023-01-06T03:53:40.487Z,11.15
2023-01-06T03:56:17.561Z,11.16
2023-01-06T03:58:47.355Z,11.16
2023-01-06T04:01:16.297Z,11.20
2023-01-06T04:03:47.078Z,11.23
2023-01-06T04:06:16.369Z,11.24
2023-01-06T04:08:44.383Z,11.23
2023-01-06T04:11:33.281Z,11.19
2023-01-06T04:14:00.345Z,11.23
2023-01-06T04:16:29.106Z,11.21
2023-01-06T04:18:57.061Z,11.20
2023-01-06T04:21:25.976Z,11.22
2023-01-06T04:23:54.145Z,11.29
2023-01-06T04:26:21.983Z,11.26
2023-01-06T04:28:51.375Z,11.27
2023-01-06T04:31:19.719Z,11.28
2023-01-06T04:33:50.003Z,11.26
2023-01-06T04:36:20.168Z,11.28
2023-01-06T04:38:52.105Z,11.33
2023-01-06T04:41:19.688Z,11.28
2023-01-06T04:43:47.262Z,11.33
2023-01-06T04:46:14.793Z,11.28
2023-01-06T04:48:42.331Z,11.30
2023-01-06T04:51:12.077Z,11.31
2023-01-06T04:53:42.090Z,11.35
2023-01-06T04:56:13.442Z,11.32
2023-01-06T04:58:41.133Z,11.32
2023-01-06T05:01:10.976Z,11.34
2023-01-06T05:03:38.690Z,11.34
2023-01-06T05:06:09.797Z,11.23
2023-01-06T05:08:38.424Z,11.34
2023-01-06T05:11:08.343Z,11.29
2023-01-06T05:13:37.705Z,11.24
2023-01-06T05:16:07.513Z,11.26
2023-01-06T05:18:35.311Z,11.28
2023-01-06T05:21:03.562Z,11.32
2023-01-06T05:23:31.646Z,11.30
2023-01-06T05:25:59.254Z,11.30
2023-01-06T05:28:26.912Z,11.27
2023-01-06T05:31:00.025Z,11.23
2023-01-06T05:33:27.595Z,11.22
2023-01-06T05:35:58.652Z,11.20
2023-01-06T05:38:26.196Z,11.05
2023-01-06T05:40:54.019Z,11.09
2023-01-06T05:43:21.910Z,11.10
2023-01-06T05:45:49.688Z,11.12
2023-01-06T05:48:18.589Z,11.04
2023-01-06T05:50:46.144Z,11.07
2023-01-06T05:53:13.708Z,11.04
2023-01-06T05:55:41.277Z,10.99
2023-01-06T05:58:08.928Z,11.08
2023-01-06T06:00:36.712Z,11.05
2023-01-06T06:03:04.463Z,11.05
2023-01-06T06:05:33.361Z,11.05
2023-01-06T06:08:00.910Z,11.05
2023-01-06T06:10:28.442Z,11.06
2023-01-06T06:12:56.011Z,11.01
2023-01-06T06:15:23.573Z,11.06
2023-01-06T06:17:51.087Z,11.01
2023-01-06T06:20:18.684Z,11.01
2023-01-06T06:22:47.642Z,11.03
2023-01-06T06:25:15.407Z,11.11
2023-01-06T06:27:42.983Z,11.06
2023-01-06T06:30:11.222Z,11.09
2023-01-06T06:32:38.823Z,11.08
2023-01-06T06:35:07.410Z,11.06
2023-01-06T06:37:35.003Z,11.05
2023-01-06T06:40:04.321Z,11.03
2023-01-06T06:42:31.817Z,11.02
2023-01-06T06:44:59.360Z,10.88
2023-01-06T06:47:26.912Z,10.87
2023-01-06T06:49:54.442Z,10.85
2023-01-06T06:52:21.943Z,10.81
2023-01-06T06:54:49.493Z,10.82
2023-01-06T06:57:18.446Z,10.80
2023-01-06T06:59:46.024Z,10.79
2023-01-06T07:02:13.652Z,10.66
2023-01-06T07:04:41.359Z,10.68
2023-01-06T07:07:08.952Z,10.66
2023-01-06T07:09:36.574Z,10.73
2023-01-06T07:12:04.465Z,10.74
2023-01-06T07:14:33.383Z,10.70
2023-01-06T07:17:01.935Z,10.76
2023-01-06T07:19:29.546Z,10.77
2023-01-06T07:21:57.103Z,10.69
2023-01-06T07:24:24.778Z,10.67
2023-01-06T07:26:52.325Z,10.69
2023-01-06T07:29:19.852Z,10.79
2023-01-06T07:31:48.781Z,10.89
2023-01-06T07:34:16.343Z,11.09
2023-01-06T07:36:43.897Z,11.08
2023-01-06T07:39:11.433Z,10.91
2023-01-06T07:41:38.991Z,11.10
2023-01-06T07:44:12.095Z,11.05
2023-01-06T07:46:39.676Z,10.97
2023-01-06T07:49:08.630Z,10.85
2023-01-06T07:51:36.145Z,10.80
2023-01-06T07:54:03.898Z,10.85
2023-01-06T07:56:31.478Z,10.83
2023-01-06T07:58:59.042Z,10.76
2023-01-06T08:01:26.734Z,10.75
2023-01-06T08:03:54.354Z,10.76
2023-01-06T08:06:23.356Z,10.79
2023-01-06T08:08:50.958Z,10.76
2023-01-06T08:11:21.381Z,10.82
2023-01-06T08:13:48.992Z,10.70
2023-01-06T08:16:16.606Z,10.79
2023-01-06T08:18:44.163Z,10.95
2023-01-06T08:21:12.476Z,10.98
2023-01-06T08:23:41.524Z,11.06
2023-01-06T08:26:13.339Z,11.00
2023-01-06T08:28:41.181Z,11.08
2023-01-06T08:31:10.326Z,11.16
2023-01-06T08:33:37.926Z,11.23
2023-01-06T08:36:08.023Z,11.27
2023-01-06T08:38:37.409Z,11.20
2023-01-06T08:41:06.770Z,11.40
2023-01-06T08:43:34.548Z,11.42
2023-01-06T08:46:03.670Z,11.45
2023-01-06T08:48:32.354Z,11.40
2023-01-06T08:51:03.754Z,11.33
2023-01-06T08:53:31.342Z,11.36
2023-01-06T08:55:59.280Z,11.29
2023-01-06T08:58:28.208Z,11.28
2023-01-06T09:00:55.949Z,11.23
2023-01-06T09:03:23.557Z,11.37
2023-01-06T09:05:55.419Z,11.46
2023-01-06T09:08:23.466Z,11.55
2023-01-06T09:10:51.422Z,11.80
2023-01-06T09:13:19.029Z,11.62
2023-01-06T09:15:49.008Z,11.70
2023-01-06T09:18:16.897Z,11.95
2023-01-06T09:20:44.465Z,12.02
2023-01-06T09:23:11.982Z,12.22
2023-01-06T09:25:39.647Z,12.18
2023-01-06T09:28:07.237Z,12.04
2023-01-06T09:30:34.832Z,12.11
2023-01-06T09:33:03.744Z,12.11
2023-01-06T09:35:31.340Z,12.30
2023-01-06T09:37:58.937Z,12.11
2023-01-06T09:40:34.053Z,12.03
2023-01-06T09:43:15.718Z,11.99
2023-01-06T09:45:47.745Z,12.16
2023-01-06T09:48:22.523Z,12.21
2023-01-06T09:50:54.806Z,12.20
2023-01-06T09:53:27.273Z,12.23
2023-01-06T09:56:00.368Z,12.18
2023-01-06T09:58:32.698Z,12.32
2023-01-06T10:01:03.948Z,12.39
2023-01-06T10:03:33.131Z,12.51
2023-01-06T10:06:11.997Z,12.32
2023-01-06T10:08:50.027Z,12.16
2023-01-06T10:11:27.657Z,12.20
2023-01-06T10:14:07.683Z,12.05
2023-01-06T10:16:48.669Z,12.12
2023-01-06T10:19:30.140Z,12.09
2023-01-06T10:22:05.035Z,12.20
2023-01-06T10:24:42.067Z,12.38
2023-01-06T10:27:21.927Z,12.53
2023-01-06T10:29:51.660Z,12.58
2023-01-06T10:32:19.262Z,12.58
2023-01-06T10:34:51.797Z,12.68
2023-01-06T10:37:24.203Z,12.52
2023-01-06T10:40:00.131Z,12.45
2023-01-06T10:42:52.061Z,12.25
2023-01-06T10:45:21.728Z,12.28
2023-01-06T10:47:51.191Z,12.26
2023-01-06T10:50:20.761Z,12.15
2023-01-06T10:52:49.430Z,12.18
2023-01-06T10:55:33.138Z,12.18
2023-01-06T10:58:03.579Z,12.15
2023-01-06T11:00:32.145Z,12.39
2023-01-06T11:03:19.393Z,12.70
2023-01-06T11:06:05.225Z,12.90
2023-01-06T11:08:33.653Z,13.00
2023-01-06T11:11:01.351Z,13.19
2023-01-06T11:13:34.341Z,13.18
2023-01-06T11:16:08.801Z,13.53
2023-01-06T11:18:38.079Z,13.71
2023-01-06T11:21:11.768Z,13.44
2023-01-06T11:23:41.511Z,13.38
2023-01-06T11:26:17.390Z,13.53
2023-01-06T11:28:46.500Z,13.68
2023-01-06T11:31:21.332Z,13.73
2023-01-06T11:33:49.587Z,13.69
2023-01-06T11:36:21.476Z,13.72
2023-01-06T11:38:52.055Z,13.47
2023-01-06T11:41:25.788Z,13.52
2023-01-06T11:43:57.960Z,13.56
2023-01-06T11:46:26.524Z,13.82
2023-01-06T11:49:01.380Z,14.32
2023-01-06T11:51:48.486Z,14.25
2023-01-06T11:54:26.548Z,14.36
2023-01-06T11:57:02.008Z,14.09
2023-01-06T11:59:39.829Z,14.12
2023-01-06T12:02:14.522Z,13.95
2023-01-06T12:04:47.058Z,13.20
2023-01-06T12:07:21.488Z,13.50
2023-01-06T12:09:51.455Z,13.34
2023-01-06T12:12:22.522Z,13.28
2023-01-06T12:14:50.257Z,13.44
2023-01-06T12:17:31.685Z,13.38
2023-01-06T12:20:03.368Z,13.37
2023-01-06T12:22:38.176Z,13.23
2023-01-06T12:25:12.025Z,13.31
2023-01-06T12:27:45.108Z,12.67
2023-01-06T12:30:19.507Z,12.77
2023-01-06T12:32:49.958Z,12.82
2023-01-06T12:35:23.353Z,12.98
2023-01-06T12:37:54.444Z,12.71
2023-01-06T12:40:28.844Z,12.63
2023-01-06T12:43:04.620Z,12.68
2023-01-06T12:45:43.467Z,12.60
2023-01-06T12:48:22.027Z,12.88
2023-01-06T12:50:54.393Z,12.97
2023-01-06T12:53:27.328Z,12.90
2023-01-06T12:56:17.954Z,13.25
2023-01-06T12:58:51.148Z,13.41
2023-01-06T13:01:25.935Z,13.58
2023-01-06T13:04:36.193Z,13.69
2023-01-06T13:07:12.544Z,14.29
2023-01-06T13:09:57.116Z,13.64
2023-01-06T13:12:56.352Z,13.36
2023-01-06T13:15:27.387Z,13.03
2023-01-06T13:18:05.694Z,12.90
2023-01-06T13:20:40.031Z,12.75
2023-01-06T13:23:22.908Z,12.82
2023-01-06T13:26:23.598Z,12.96
2023-01-06T13:29:02.961Z,13.00
2023-01-06T13:31:53.893Z,12.97
2023-01-06T13:34:47.649Z,12.90
2023-01-06T13:37:34.180Z,12.95
2023-01-06T13:40:07.887Z,12.84
2023-01-06T13:42:42.386Z,12.76
2023-01-06T13:45:17.079Z,12.92
2023-01-06T13:47:46.423Z,12.82
2023-01-06T13:50:16.312Z,12.66
2023-01-06T13:52:44.534Z,12.51
2023-01-06T13:55:30.555Z,12.53
2023-01-06T13:58:35.617Z,12.62
2023-01-06T14:01:08.317Z,12.84
2023-01-06T14:03:36.696Z,13.20
2023-01-06T14:06:05.509Z,13.29
2023-01-06T14:08:38.511Z,13.30
2023-01-06T14:11:22.235Z,13.18
2023-01-06T14:13:55.480Z,13.26
2023-01-06T14:16:23.841Z,13.48
2023-01-06T14:19:04.921Z,13.42
2023-01-06T14:21:32.750Z,13.54
2023-01-06T14:24:02.705Z,13.18
2023-01-06T14:26:47.498Z,13.04
2023-01-06T14:29:52.540Z,12.72
2023-01-06T14:33:05.726Z,12.63
2023-01-06T14:35:38.190Z,12.45
2023-01-06T14:38:13.379Z,12.44
2023-01-06T14:40:50.873Z,12.42
2023-01-06T14:43:30.773Z,12.39
2023-01-06T14:46:03.024Z,12.28
2023-01-06T14:48:37.343Z,12.32
2023-01-06T14:51:05.898Z,12.32
2023-01-06T14:53:38.104Z,12.37
2023-01-06T14:56:07.795Z,12.36
2023-01-06T14:58:37.264Z,12.35
2023-01-06T15:01:07.119Z,12.40
2023-01-06T15:03:37.407Z,12.33
2023-01-06T15:06:13.686Z,12.24
2023-01-06T15:08:41.308Z,12.23
2023-01-06T15:11:31.008Z,12.27
2023-01-06T15:13:58.701Z,12.14
2023-01-06T15:16:33.780Z,11.98
2023-01-06T15:19:06.571Z,11.88
2023-01-06T15:21:39.793Z,11.79
2023-01-06T15:24:19.441Z,11.61
2023-01-06T15:26:47.211Z,11.62
2023-01-06T15:29:16.470Z,11.64
2023-01-06T15:31:45.086Z,11.62
2023-01-06T15:34:17.685Z,11.62
2023-01-06T15:36:47.289Z,11.63
2023-01-06T15:39:16.751Z,11.62
2023-01-06T15:41:45.055Z,11.56
2023-01-06T15:44:26.357Z,11.51
2023-01-06T15:46:57.675Z,11.52
2023-01-06T15:49:32.398Z,11.54
2023-01-06T15:52:04.366Z,11.56
2023-01-06T15:54:34.881Z,11.56
2023-01-06T15:57:15.655Z,11.53
2023-01-06T15:59:54.183Z,11.50
2023-01-06T16:02:25.687Z,11.47
2023-01-06T16:04:54.770Z,11.49
2023-01-06T16:07:36.161Z,11.37
2023-01-06T16:10:04.225Z,11.30
2023-01-06T16:12:31.817Z,11.28
2023-01-06T16:14:59.406Z,11.20
2023-01-06T16:17:31.224Z,11.14
2023-01-06T16:20:03.252Z,11.02
2023-01-06T16:22:34.706Z,10.95
2023-01-06T16:25:04.583Z,10.90
2023-01-06T16:27:32.285Z,10.84
2023-01-06T16:30:19.162Z,10.82
2023-01-06T16:32:46.995Z,10.74
2023-01-06T16:35:17.661Z,10.64
2023-01-06T16:37:45.632Z,10.53
2023-01-06T16:40:14.509Z,10.41
2023-01-06T16:42:43.615Z,10.32
2023-01-06T16:45:18.623Z,10.22
2023-01-06T16:47:46.804Z,10.15
2023-01-06T16:50:19.974Z,10.08
2023-01-06T16:52:49.959Z,10.00
2023-01-06T16:55:19.667Z,9.86
2023-01-06T16:57:49.771Z,9.79
2023-01-06T17:00:19.591Z,9.71
2023-01-06T17:02:48.482Z,9.60
2023-01-06T17:05:21.949Z,9.54
2023-01-06T17:07:49.763Z,9.48
2023-01-06T17:10:21.109Z,9.45
2023-01-06T17:13:12.032Z,9.38
2023-01-06T17:15:40.118Z,9.39
2023-01-06T17:18:27.934Z,9.33
2023-01-06T17:21:02.576Z,9.32
2023-01-06T17:23:39.868Z,9.34
2023-01-06T17:26:13.268Z,9.34
2023-01-06T17:28:40.689Z,9.34
2023-01-06T17:31:14.333Z,9.35
2023-01-06T17:33:42.128Z,9.34
2023-01-06T17:36:23.920Z,9.32
2023-01-06T17:38:52.388Z,9.29
2023-01-06T17:41:20.582Z,9.30
2023-01-06T17:43:48.460Z,9.26
2023-01-06T17:46:25.099Z,9.26
2023-01-06T17:48:59.547Z,9.28
2023-01-06T17:51:28.443Z,9.29
2023-01-06T17:54:19.106Z,9.27
2023-01-06T17:56:47.386Z,9.33
2023-01-06T17:59:18.259Z,9.39
2023-01-06T18:01:45.983Z,9.38
2023-01-06T18:04:15.828Z,9.36
2023-01-06T18:06:52.563Z,9.35
2023-01-06T18:09:23.352Z,9.39
2023-01-06T18:11:52.227Z,9.38
2023-01-06T18:14:29.518Z,9.35
2023-01-06T18:16:59.840Z,9.31
2023-01-06T18:19:30.862Z,9.34
2023-01-06T18:22:00.299Z,9.32
2023-01-06T18:24:33.654Z,9.32
2023-01-06T18:27:03.196Z,9.36
2023-01-06T18:29:36.358Z,9.31
2023-01-06T18:32:27.049Z,9.29
2023-01-06T18:34:56.594Z,9.34
2023-01-06T18:37:28.753Z,9.34
2023-01-06T18:39:59.018Z,9.36
2023-01-06T18:42:29.881Z,9.40
2023-01-06T18:45:03.378Z,9.44
2023-01-06T18:47:32.151Z,9.47
2023-01-06T18:50:13.942Z,9.50
2023-01-06T18:52:46.181Z,9.55
2023-01-06T18:55:18.785Z,9.59
2023-01-06T18:57:51.441Z,9.63
2023-01-06T19:00:37.030Z,9.68
2023-01-06T19:03:29.582Z,9.67
2023-01-06T19:06:07.314Z,9.73
2023-01-06T19:08:38.414Z,9.72
2023-01-06T19:11:14.395Z,9.77
2023-01-06T19:13:42.613Z,9.72
2023-01-06T19:16:28.539Z,9.74
2023-01-06T19:19:00.513Z,9.77
2023-01-06T19:21:28.272Z,9.78
2023-01-06T19:23:57.192Z,9.85
2023-01-06T19:26:31.815Z,9.84
2023-01-06T19:29:02.822Z,9.85
2023-01-06T19:31:31.068Z,9.88
2023-01-06T19:34:00.776Z,9.87
2023-01-06T19:36:43.940Z,9.90
2023-01-06T19:39:41.594Z,9.92
2023-01-06T19:42:19.251Z,9.87
2023-01-06T19:44:50.197Z,9.89
2023-01-06T19:47:20.415Z,9.89
2023-01-06T19:49:52.981Z,9.87
2023-01-06T19:52:34.528Z,9.89
2023-01-06T19:55:22.964Z,9.88
2023-01-06T19:57:52.428Z,9.90
2023-01-06T20:00:28.522Z,9.90
2023-01-06T20:02:58.495Z,9.91
2023-01-06T20:05:27.557Z,9.88
2023-01-06T20:07:55.637Z,9.88
2023-01-06T20:10:24.782Z,9.87
2023-01-06T20:12:52.347Z,9.86
2023-01-06T20:15:19.960Z,9.84
2023-01-06T20:17:47.476Z,9.82
2023-01-06T20:20:15.504Z,9.80
2023-01-06T20:22:44.566Z,9.79
2023-01-06T20:25:12.181Z,9.76
2023-01-06T20:27:41.088Z,9.71
2023-01-06T20:30:09.572Z,9.65
2023-01-06T20:32:37.175Z,9.67
2023-01-06T20:35:06.365Z,9.63
2023-01-06T20:37:34.234Z,9.61
2023-01-06T20:40:02.178Z,9.58
2023-01-06T20:42:29.712Z,9.59
2023-01-06T20:44:58.639Z,9.57
2023-01-06T20:47:26.213Z,9.56
2023-01-06T20:49:53.830Z,9.54
2023-01-06T20:52:21.372Z,9.52
2023-01-06T20:54:49.043Z,9.52
2023-01-06T20:57:16.588Z,9.50
2023-01-06T20:59:44.158Z,9.50
2023-01-06T21:02:13.213Z,9.44
2023-01-06T21:04:40.883Z,9.42
2023-01-06T21:07:08.486Z,9.39
2023-01-06T21:09:36.072Z,9.37
2023-01-06T21:12:05.672Z,9.40
2023-01-06T21:14:34.378Z,9.38
2023-01-06T21:17:03.636Z,9.31
2023-01-06T21:19:32.482Z,9.34
2023-01-06T21:22:00.000Z,9.36
2023-01-06T21:24:27.587Z,9.39
2023-01-06T21:26:55.202Z,9.38
2023-01-06T21:29:22.806Z,9.40
2023-01-06T21:31:50.362Z,9.40
2023-01-06T21:34:17.974Z,9.41
2023-01-06T21:36:46.868Z,9.44
2023-01-06T21:39:15.056Z,9.45
2023-01-06T21:42:00.218Z,9.48
2023-01-06T21:44:27.759Z,9.49
2023-01-06T21:46:55.282Z,9.51
2023-01-06T21:49:22.889Z,9.51
2023-01-06T21:51:53.896Z,9.43
2023-01-06T21:54:21.810Z,9.40
2023-01-06T21:56:50.340Z,9.39
2023-01-06T21:59:18.457Z,9.38
2023-01-06T22:01:46.164Z,9.37
2023-01-06T22:04:13.932Z,9.35
2023-01-06T22:06:43.777Z,9.36
2023-01-06T22:09:15.100Z,9.39
2023-01-06T22:11:44.613Z,9.42
2023-01-06T22:14:13.578Z,9.44
2023-01-06T22:16:41.971Z,9.45
2023-01-06T22:19:12.025Z,9.48
2023-01-06T22:21:41.136Z,9.48
2023-01-06T22:24:11.815Z,9.49
2023-01-06T22:26:40.719Z,9.48
2023-01-06T22:29:08.375Z,9.53
2023-01-06T22:31:36.122Z,9.55
2023-01-06T22:34:03.708Z,9.52
2023-01-06T22:36:31.229Z,9.51
2023-01-06T22:38:58.807Z,9.49
2023-01-06T22:41:26.351Z,9.46
2023-01-06T22:43:55.220Z,9.42
2023-01-06T22:46:22.923Z,9.39
2023-01-06T22:48:50.651Z,9.36
2023-01-06T22:51:18.203Z,9.40
2023-01-06T22:53:45.841Z,9.37
2023-01-06T22:56:13.633Z,9.36
2023-01-06T22:58:41.874Z,9.33
2023-01-06T23:01:10.981Z,9.36
2023-01-06T23:03:38.988Z,9.36
2023-01-06T23:06:09.396Z,9.42
2023-01-06T23:08:42.868Z,9.37
2023-01-06T23:11:14.682Z,9.29
2023-01-06T23:13:43.287Z,9.29
2023-01-06T23:16:15.070Z,9.32
2023-01-06T23:18:44.609Z,9.27
2023-01-06T23:21:15.013Z,9.29
2023-01-06T23:23:43.801Z,9.32
2023-01-06T23:26:13.986Z,9.33
2023-01-06T23:28:42.477Z,9.42
2023-01-06T23:31:13.193Z,9.39
2023-01-06T23:33:42.412Z,9.44
2023-01-06T23:36:12.010Z,9.44
2023-01-06T23:38:40.248Z,9.47
2023-01-06T23:41:10.270Z,9.42
2023-01-06T23:43:38.782Z,9.37
2023-01-06T23:46:08.609Z,9.35
2023-01-06T23:48:37.987Z,9.35
2023-01-06T23:51:06.990Z,9.41
2023-01-06T23:53:35.551Z,9.42
2023-01-06T23:56:04.624Z,9.44
2023-01-06T23:58:34.261Z,9.43
